createdAt,value
2018-03-28T00:00:57.405Z,7.47
2018-03-28T00:01:57.123Z,7.5
2018-03-28T00:02:57.345Z,7.51
2018-03-28T00:03:57.320Z,7.47
2018-03-28T00:04:57.045Z,7.39
2018-03-28T00:05:57.266Z,7.39
2018-03-28T00:06:56.993Z,7.33
2018-03-28T00:07:57.219Z,7.36
2018-03-28T00:08:57.189Z,7.35
2018-03-28T00:09:57.159Z,7.36
2018-03-28T00:10:57.136Z,7.39
2018-03-28T00:11:57.120Z,7.42
2018-03-28T00:12:57.096Z,7.36
2018-03-28T00:13:57.060Z,7.38
2018-03-28T00:14:57.031Z,7.39
2018-03-28T00:15:56.750Z,7.4
2018-03-28T00:16:56.970Z,7.42
2018-03-28T00:17:56.705Z,7.39
2018-03-28T00:18:56.920Z,7.32
2018-03-28T00:19:56.888Z,7.32
2018-03-28T00:20:56.868Z,7.33
2018-03-28T00:21:56.593Z,7.39
2018-03-28T00:22:56.818Z,7.42
2018-03-28T00:23:56.788Z,7.36
2018-03-28T00:24:56.755Z,7.38
2018-03-28T00:25:56.733Z,7.32
2018-03-28T00:26:56.456Z,7.28
2018-03-28T00:27:56.689Z,7.33
2018-03-28T00:28:56.402Z,7.29
2018-03-28T00:29:56.623Z,7.28
2018-03-28T00:30:56.598Z,7.35
2018-03-28T00:31:56.321Z,7.28
2018-03-28T00:32:56.301Z,7.33
2018-03-28T00:33:56.521Z,7.32
2018-03-28T00:34:56.496Z,7.29
2018-03-28T00:35:56.463Z,7.32
2018-03-28T00:36:56.436Z,7.25
2018-03-28T00:37:56.413Z,7.33
2018-03-28T00:38:56.380Z,7.32
2018-03-28T00:39:56.362Z,7.24
2018-03-28T00:40:56.332Z,7.24
2018-03-28T00:41:56.051Z,7.31
2018-03-28T00:42:56.277Z,7.25
2018-03-28T00:43:56.250Z,7.31
2018-03-28T00:44:56.220Z,7.38
2018-03-28T00:45:56.195Z,7.33
2018-03-28T00:46:55.920Z,7.35
2018-03-28T00:47:55.897Z,7.31
2018-03-28T00:48:55.864Z,7.38
2018-03-28T00:49:56.089Z,7.42
2018-03-28T00:50:55.811Z,7.35
2018-03-28T00:51:56.039Z,7.38
2018-03-28T00:52:56.010Z,7.4
2018-03-28T00:53:55.983Z,7.29
2018-03-28T00:54:55.702Z,7.4
2018-03-28T00:55:55.683Z,7.4
2018-03-28T00:56:55.654Z,7.35
2018-03-28T00:57:55.876Z,7.36
2018-03-28T00:58:55.843Z,7.4
2018-03-28T00:59:55.820Z,7.36
2018-03-28T01:00:55.797Z,7.35
2018-03-28T01:01:55.526Z,7.32
2018-03-28T01:02:55.740Z,7.38
2018-03-28T01:03:55.709Z,7.38
2018-03-28T01:04:55.754Z,7.29
2018-03-28T01:05:55.411Z,7.32
2018-03-28T01:06:55.636Z,7.33
2018-03-28T01:07:55.604Z,7.35
2018-03-28T01:08:55.332Z,7.36
2018-03-28T01:09:55.302Z,7.31
2018-03-28T01:10:55.277Z,7.35
2018-03-28T01:11:55.499Z,7.36
2018-03-28T01:12:55.475Z,7.39
2018-03-28T01:13:55.198Z,7.38
2018-03-28T01:14:55.419Z,7.39
2018-03-28T01:15:55.401Z,7.38
2018-03-28T01:16:55.376Z,7.33
2018-03-28T01:17:55.097Z,7.32
2018-03-28T01:18:55.312Z,7.35
2018-03-28T01:19:55.288Z,7.36
2018-03-28T01:20:55.261Z,7.33
2018-03-28T01:21:54.984Z,7.33
2018-03-28T01:22:55.210Z,7.35
2018-03-28T01:23:55.180Z,7.35
2018-03-28T01:24:55.160Z,7.28
2018-03-28T01:25:54.874Z,7.32
2018-03-28T01:26:54.849Z,7.36
2018-03-28T01:27:54.822Z,7.43
2018-03-28T01:28:55.048Z,7.4
2018-03-28T01:29:55.012Z,7.39
2018-03-28T01:30:54.999Z,7.47
2018-03-28T01:31:54.969Z,7.38
2018-03-28T01:32:54.948Z,7.38
2018-03-28T01:33:54.667Z,7.48
2018-03-28T01:34:54.632Z,7.48
2018-03-28T01:35:54.610Z,7.47
2018-03-28T01:36:54.836Z,7.43
2018-03-28T01:37:54.808Z,7.47
2018-03-28T01:38:54.791Z,7.45
2018-03-28T01:39:54.752Z,7.39
2018-03-28T01:40:54.728Z,7.43
2018-03-28T01:41:54.698Z,7.5
2018-03-28T01:42:54.688Z,7.53
2018-03-28T01:43:54.644Z,7.51
2018-03-28T01:44:54.626Z,7.56
2018-03-28T01:45:54.344Z,7.54
2018-03-28T01:46:54.563Z,7.57
2018-03-28T01:47:54.535Z,7.6
2018-03-28T01:48:54.530Z,7.57
2018-03-28T01:49:54.489Z,7.51
2018-03-28T01:50:54.455Z,7.58
2018-03-28T01:51:54.442Z,7.58
2018-03-28T01:52:54.405Z,7.58
2018-03-28T01:53:54.378Z,7.58
2018-03-28T01:54:54.351Z,7.66
2018-03-28T01:55:54.321Z,7.63
2018-03-28T01:56:54.048Z,7.67
2018-03-28T01:57:54.271Z,7.56
2018-03-28T01:58:54.244Z,7.61
2018-03-28T01:59:54.235Z,7.56
2018-03-28T02:00:54.191Z,7.63
2018-03-28T02:01:54.168Z,7.66
2018-03-28T02:02:54.139Z,7.67
2018-03-28T02:03:54.109Z,7.66
2018-03-28T02:04:54.098Z,7.66
2018-03-28T02:05:54.062Z,7.67
2018-03-28T02:06:54.157Z,7.69
2018-03-28T02:07:54.000Z,7.61
2018-03-28T02:08:54.038Z,7.66
2018-03-28T02:09:53.951Z,7.66
2018-03-28T02:10:53.927Z,7.67
2018-03-28T02:11:53.655Z,7.69
2018-03-28T02:12:53.871Z,7.61
2018-03-28T02:13:53.850Z,7.66
2018-03-28T02:14:53.572Z,7.66
2018-03-28T02:15:53.798Z,7.56
2018-03-28T02:16:53.767Z,7.57
2018-03-28T02:17:53.740Z,7.51
2018-03-28T02:18:53.710Z,7.53
2018-03-28T02:19:53.683Z,7.61
2018-03-28T02:20:53.411Z,7.56
2018-03-28T02:21:53.638Z,7.61
2018-03-28T02:22:53.358Z,7.45
2018-03-28T02:23:53.591Z,7.56
2018-03-28T02:24:53.567Z,7.56
2018-03-28T02:25:53.533Z,7.5
2018-03-28T02:26:53.262Z,7.5
2018-03-28T02:27:53.474Z,7.45
2018-03-28T02:28:53.453Z,7.5
2018-03-28T02:29:53.178Z,7.5
2018-03-28T02:30:53.402Z,7.61
2018-03-28T02:31:53.136Z,7.57
2018-03-28T02:32:53.365Z,7.5
2018-03-28T02:33:53.064Z,7.63
2018-03-28T02:34:53.295Z,7.61
2018-03-28T02:35:53.260Z,7.67
2018-03-28T02:36:52.982Z,7.58
2018-03-28T02:37:53.216Z,7.66
2018-03-28T02:38:53.183Z,7.61
2018-03-28T02:39:53.158Z,7.66
2018-03-28T02:40:53.142Z,7.63
2018-03-28T02:41:53.114Z,7.6
2018-03-28T02:42:52.828Z,7.63
2018-03-28T02:43:53.050Z,7.66
2018-03-28T02:44:53.031Z,7.66
2018-03-28T02:45:53.004Z,7.58
2018-03-28T02:46:52.723Z,7.67
2018-03-28T02:47:52.942Z,7.76
2018-03-28T02:48:52.952Z,7.67
2018-03-28T02:49:52.890Z,7.66
2018-03-28T02:50:52.867Z,7.6
2018-03-28T02:51:52.844Z,7.76
2018-03-28T02:52:52.819Z,7.69
2018-03-28T02:53:52.792Z,7.72
2018-03-28T02:54:52.766Z,7.76
2018-03-28T02:55:52.730Z,7.75
2018-03-28T02:56:52.707Z,7.61
2018-03-28T02:57:52.684Z,7.66
2018-03-28T02:58:52.405Z,7.76
2018-03-28T02:59:52.389Z,7.7
2018-03-28T03:00:52.595Z,7.67
2018-03-28T03:01:52.573Z,7.6
2018-03-28T03:02:52.550Z,7.61
2018-03-28T03:03:52.519Z,7.77
2018-03-28T03:04:52.502Z,7.73
2018-03-28T03:05:52.223Z,7.73
2018-03-28T03:06:52.442Z,7.7
2018-03-28T03:07:52.413Z,7.75
2018-03-28T03:08:52.141Z,7.73
2018-03-28T03:09:52.133Z,7.75
2018-03-28T03:10:52.330Z,7.73
2018-03-28T03:11:52.305Z,7.76
2018-03-28T03:12:52.029Z,7.73
2018-03-28T03:13:52.253Z,7.73
2018-03-28T03:14:52.229Z,7.7
2018-03-28T03:15:52.300Z,7.75
2018-03-28T03:16:52.171Z,7.69
2018-03-28T03:17:52.144Z,7.75
2018-03-28T03:18:52.113Z,7.72
2018-03-28T03:19:52.088Z,7.76
2018-03-28T03:20:52.061Z,7.73
2018-03-28T03:21:51.788Z,7.76
2018-03-28T03:22:52.016Z,7.75
2018-03-28T03:23:51.986Z,7.72
2018-03-28T03:24:51.963Z,7.85
2018-03-28T03:25:51.934Z,7.82
2018-03-28T03:26:51.409Z,7.8
2018-03-28T03:27:51.879Z,7.82
2018-03-28T03:28:51.858Z,7.82
2018-03-28T03:29:51.850Z,7.82
2018-03-28T03:30:51.555Z,7.79
2018-03-28T03:31:51.781Z,7.85
2018-03-28T03:32:51.742Z,7.85
2018-03-28T03:33:51.469Z,7.76
2018-03-28T03:34:51.695Z,7.82
2018-03-28T03:35:51.414Z,7.72
2018-03-28T03:36:51.151Z,7.8
2018-03-28T03:37:51.361Z,7.75
2018-03-28T03:38:51.588Z,7.75
2018-03-28T03:39:51.564Z,7.75
2018-03-28T03:40:51.552Z,7.79
2018-03-28T03:41:51.504Z,7.75
2018-03-28T03:42:51.482Z,7.76
2018-03-28T03:43:51.456Z,7.72
2018-03-28T03:44:51.460Z,7.73
2018-03-28T03:45:51.148Z,7.67
2018-03-28T03:46:51.373Z,7.75
2018-03-28T03:47:51.357Z,7.58
2018-03-28T03:48:51.316Z,7.63
2018-03-28T03:49:51.289Z,7.66
2018-03-28T03:50:51.279Z,7.58
2018-03-28T03:51:51.246Z,7.7
2018-03-28T03:52:50.965Z,7.7
2018-03-28T03:53:51.187Z,7.76
2018-03-28T03:54:51.180Z,7.66
2018-03-28T03:55:51.141Z,7.61
2018-03-28T03:56:50.863Z,7.63
2018-03-28T03:57:51.081Z,7.7
2018-03-28T03:58:50.918Z,7.69
2018-03-28T03:59:50.778Z,7.7
2018-03-28T04:00:51.004Z,7.66
2018-03-28T04:01:50.729Z,7.73
2018-03-28T04:02:50.456Z,7.61
2018-03-28T04:03:50.671Z,7.61
2018-03-28T04:04:50.649Z,7.58
2018-03-28T04:05:50.873Z,7.63
2018-03-28T04:06:50.847Z,7.7
2018-03-28T04:07:50.320Z,7.67
2018-03-28T04:08:50.791Z,7.7
2018-03-28T04:09:50.775Z,7.61
2018-03-28T04:10:50.746Z,7.67
2018-03-28T04:11:50.463Z,7.79
2018-03-28T04:12:50.684Z,7.67
2018-03-28T04:13:50.407Z,7.72
2018-03-28T04:14:50.633Z,7.76
2018-03-28T04:15:50.356Z,7.75
2018-03-28T04:16:50.337Z,7.73
2018-03-28T04:17:50.345Z,7.7
2018-03-28T04:18:50.275Z,7.75
2018-03-28T04:19:50.250Z,7.76
2018-03-28T04:20:49.972Z,7.72
2018-03-28T04:21:50.194Z,7.72
2018-03-28T04:22:49.920Z,7.77
2018-03-28T04:23:50.142Z,7.7
2018-03-28T04:24:50.116Z,7.72
2018-03-28T04:25:50.334Z,7.72
2018-03-28T04:26:50.312Z,7.76
2018-03-28T04:27:50.282Z,7.77
2018-03-28T04:28:50.011Z,7.77
2018-03-28T04:29:50.232Z,7.76
2018-03-28T04:30:50.212Z,7.75
2018-03-28T04:31:50.185Z,7.77
2018-03-28T04:32:50.155Z,7.77
2018-03-28T04:33:49.877Z,7.8
2018-03-28T04:34:50.102Z,7.77
2018-03-28T04:35:49.824Z,7.7
2018-03-28T04:36:50.047Z,7.77
2018-03-28T04:37:50.021Z,7.88
2018-03-28T04:38:49.994Z,7.77
2018-03-28T04:39:49.975Z,7.83
2018-03-28T04:40:49.944Z,7.73
2018-03-28T04:41:49.415Z,7.85
2018-03-28T04:42:49.889Z,7.83
2018-03-28T04:43:49.876Z,7.8
2018-03-28T04:44:49.832Z,7.87
2018-03-28T04:45:49.804Z,7.82
2018-03-28T04:46:49.777Z,7.9
2018-03-28T04:47:49.759Z,7.94
2018-03-28T04:48:49.733Z,7.9
2018-03-28T04:49:49.704Z,8
2018-03-28T04:50:49.676Z,7.94
2018-03-28T04:51:49.649Z,7.97
2018-03-28T04:52:49.627Z,7.95
2018-03-28T04:53:49.344Z,7.98
2018-03-28T04:54:49.570Z,8
2018-03-28T04:55:49.650Z,7.95
2018-03-28T04:56:49.520Z,7.95
2018-03-28T04:57:49.593Z,8
2018-03-28T04:58:49.464Z,8.06
2018-03-28T04:59:49.439Z,7.94
2018-03-28T05:00:49.164Z,7.93
2018-03-28T05:01:49.381Z,8.05
2018-03-28T05:02:49.363Z,7.98
2018-03-28T05:03:49.339Z,7.95
2018-03-28T05:04:49.308Z,8
2018-03-28T05:05:49.280Z,7.98
2018-03-28T05:06:49.006Z,8
2018-03-28T05:07:48.977Z,7.98
2018-03-28T05:08:48.949Z,8.01
2018-03-28T05:09:49.180Z,8.03
2018-03-28T05:10:49.152Z,7.95
2018-03-28T05:11:49.118Z,7.98
2018-03-28T05:12:48.845Z,8
2018-03-28T05:13:49.074Z,7.94
2018-03-28T05:14:48.800Z,8.01
2018-03-28T05:15:49.372Z,7.95
2018-03-28T05:16:48.991Z,7.98
2018-03-28T05:17:48.712Z,7.97
2018-03-28T05:18:48.942Z,7.97
2018-03-28T05:19:48.663Z,7.97
2018-03-28T05:20:49.748Z,7.98
2018-03-28T05:21:48.855Z,8
2018-03-28T05:22:48.908Z,7.95
2018-03-28T05:23:48.806Z,7.95
2018-03-28T05:24:48.527Z,8
2018-03-28T05:25:48.757Z,7.98
2018-03-28T05:26:48.482Z,7.97
2018-03-28T05:27:48.697Z,7.94
2018-03-28T05:28:48.672Z,7.88
2018-03-28T05:29:48.395Z,7.95
2018-03-28T05:30:48.620Z,7.95
2018-03-28T05:31:48.593Z,7.91
2018-03-28T05:32:48.568Z,7.9
2018-03-28T05:33:48.540Z,7.91
2018-03-28T05:34:48.267Z,7.94
2018-03-28T05:35:48.242Z,7.83
2018-03-28T05:36:48.465Z,7.88
2018-03-28T05:37:48.433Z,7.91
2018-03-28T05:38:48.411Z,7.9
2018-03-28T05:39:48.390Z,7.87
2018-03-28T05:40:48.110Z,7.91
2018-03-28T05:41:48.329Z,7.94
2018-03-28T05:42:48.363Z,7.94
2018-03-28T05:43:48.275Z,7.9
2018-03-28T05:44:48.265Z,7.94
2018-03-28T05:45:47.974Z,7.95
2018-03-28T05:46:47.951Z,7.9
2018-03-28T05:47:48.181Z,7.93
2018-03-28T05:48:48.142Z,7.94
2018-03-28T05:49:48.213Z,7.98
2018-03-28T05:50:48.098Z,8
2018-03-28T05:51:47.816Z,7.95
2018-03-28T05:52:47.787Z,7.97
2018-03-28T05:53:48.009Z,7.97
2018-03-28T05:54:47.987Z,8
2018-03-28T05:55:47.719Z,7.98
2018-03-28T05:56:47.929Z,8.01
2018-03-28T05:57:47.920Z,7.97
2018-03-28T05:58:47.887Z,7.98
2018-03-28T05:59:47.852Z,8
2018-03-28T06:00:47.827Z,7.98
2018-03-28T06:01:47.802Z,7.93
2018-03-28T06:02:47.776Z,8.01
2018-03-28T06:03:47.751Z,7.98
2018-03-28T06:04:47.715Z,8.03
2018-03-28T06:05:47.695Z,8
2018-03-28T06:06:47.670Z,7.94
2018-03-28T06:07:47.474Z,8.08
2018-03-28T06:08:47.616Z,7.98
2018-03-28T06:09:47.341Z,8
2018-03-28T06:10:47.565Z,7.95
2018-03-28T06:11:47.538Z,7.98
2018-03-28T06:12:47.510Z,7.97
2018-03-28T06:13:47.479Z,7.98
2018-03-28T06:14:47.206Z,8
2018-03-28T06:15:47.437Z,7.93
2018-03-28T06:16:47.152Z,8
2018-03-28T06:17:47.377Z,7.95
2018-03-28T06:18:47.352Z,7.94
2018-03-28T06:19:47.325Z,7.94
2018-03-28T06:20:47.300Z,7.98
2018-03-28T06:21:47.276Z,7.95
2018-03-28T06:22:47.251Z,7.93
2018-03-28T06:23:47.219Z,7.91
2018-03-28T06:24:47.195Z,7.93
2018-03-28T06:25:47.165Z,7.9
2018-03-28T06:26:47.142Z,7.85
2018-03-28T06:27:46.877Z,7.79
2018-03-28T06:28:47.089Z,7.77
2018-03-28T06:29:46.815Z,7.82
2018-03-28T06:30:46.865Z,7.83
2018-03-28T06:31:46.875Z,7.88
2018-03-28T06:32:46.736Z,7.87
2018-03-28T06:33:47.803Z,7.83
2018-03-28T06:34:47.712Z,7.83
2018-03-28T06:35:46.905Z,7.87
2018-03-28T06:36:46.881Z,7.82
2018-03-28T06:37:46.850Z,7.88
2018-03-28T06:38:46.832Z,7.91
2018-03-28T06:39:46.780Z,7.98
2018-03-28T06:40:46.772Z,7.97
2018-03-28T06:41:46.750Z,7.85
2018-03-28T06:42:46.905Z,7.83
2018-03-28T06:43:47.041Z,7.8
2018-03-28T06:44:47.886Z,7.8
2018-03-28T06:45:47.578Z,7.8
2018-03-28T06:46:46.618Z,7.88
2018-03-28T06:47:46.584Z,7.85
2018-03-28T06:48:46.588Z,7.88
2018-03-28T06:49:46.860Z,7.79
2018-03-28T06:50:47.458Z,7.83
2018-03-28T06:51:46.147Z,7.82
2018-03-28T06:52:48.100Z,7.8
2018-03-28T06:53:47.688Z,7.83
2018-03-28T06:54:46.727Z,7.94
2018-03-28T06:55:46.396Z,7.97
2018-03-28T06:56:46.349Z,8
2018-03-28T06:57:46.413Z,7.97
2018-03-28T06:58:46.293Z,8
2018-03-28T06:59:46.479Z,7.98
2018-03-28T07:00:45.996Z,7.94
2018-03-28T07:01:45.990Z,8.01
2018-03-28T07:02:46.198Z,8.06
2018-03-28T07:03:46.166Z,8.1
2018-03-28T07:04:46.135Z,8.08
2018-03-28T07:05:46.478Z,8.12
2018-03-28T07:06:47.062Z,8.12
2018-03-28T07:07:45.825Z,8.2
2018-03-28T07:08:45.787Z,8.18
2018-03-28T07:09:46.024Z,8.24
2018-03-28T07:10:45.982Z,8.18
2018-03-28T07:11:45.961Z,8.23
2018-03-28T07:12:46.121Z,8.3
2018-03-28T07:13:45.818Z,8.33
2018-03-28T07:14:45.870Z,8.34
2018-03-28T07:15:45.853Z,8.33
2018-03-28T07:16:45.844Z,8.42
2018-03-28T07:17:45.306Z,8.42
2018-03-28T07:18:45.776Z,8.42
2018-03-28T07:19:46.106Z,8.42
2018-03-28T07:20:45.846Z,8.42
2018-03-28T07:21:45.452Z,8.44
2018-03-28T07:22:45.721Z,8.45
2018-03-28T07:23:45.155Z,8.55
2018-03-28T07:24:45.483Z,8.56
2018-03-28T07:25:45.106Z,8.55
2018-03-28T07:26:45.578Z,8.61
2018-03-28T07:27:45.584Z,8.61
2018-03-28T07:28:45.671Z,8.58
2018-03-28T07:29:45.509Z,8.6
2018-03-28T07:30:45.227Z,8.56
2018-03-28T07:31:45.461Z,8.6
2018-03-28T07:32:44.929Z,8.55
2018-03-28T07:33:45.423Z,8.58
2018-03-28T07:34:45.377Z,8.56
2018-03-28T07:35:46.362Z,8.56
2018-03-28T07:36:45.076Z,8.58
2018-03-28T07:37:45.303Z,8.58
2018-03-28T07:38:45.072Z,8.6
2018-03-28T07:39:44.755Z,8.69
2018-03-28T07:40:45.227Z,8.61
2018-03-28T07:41:44.952Z,8.63
2018-03-28T07:42:45.171Z,8.64
2018-03-28T07:43:45.157Z,8.67
2018-03-28T07:44:45.120Z,8.67
2018-03-28T07:45:44.850Z,8.67
2018-03-28T07:46:46.122Z,8.6
2018-03-28T07:47:44.806Z,8.64
2018-03-28T07:48:45.023Z,8.71
2018-03-28T07:49:44.757Z,8.74
2018-03-28T07:50:44.974Z,8.76
2018-03-28T07:51:44.952Z,8.67
2018-03-28T07:52:44.921Z,8.76
2018-03-28T07:53:44.901Z,8.67
2018-03-28T07:54:44.888Z,8.71
2018-03-28T07:55:44.401Z,8.81
2018-03-28T07:56:44.586Z,8.76
2018-03-28T07:57:44.557Z,8.78
2018-03-28T07:58:44.775Z,8.88
2018-03-28T07:59:44.753Z,8.79
2018-03-28T08:00:44.524Z,8.82
2018-03-28T08:01:44.719Z,8.89
2018-03-28T08:02:44.681Z,8.92
2018-03-28T08:03:44.657Z,8.87
2018-03-28T08:04:44.377Z,8.84
2018-03-28T08:05:44.679Z,8.87
2018-03-28T08:06:44.606Z,8.89
2018-03-28T08:07:44.558Z,8.88
2018-03-28T08:08:44.294Z,9
2018-03-28T08:09:44.259Z,9.08
2018-03-28T08:10:44.233Z,9.14
2018-03-28T08:11:44.459Z,9.25
2018-03-28T08:12:44.191Z,9.39
2018-03-28T08:13:44.412Z,9.46
2018-03-28T08:14:44.145Z,9.56
2018-03-28T08:15:44.367Z,9.48
2018-03-28T08:16:44.095Z,9.47
2018-03-28T08:17:44.314Z,9.56
2018-03-28T08:18:44.047Z,9.58
2018-03-28T08:19:44.023Z,9.66
2018-03-28T08:20:44.252Z,9.74
2018-03-28T08:21:43.731Z,9.77
2018-03-28T08:22:43.954Z,9.79
2018-03-28T08:23:43.927Z,9.69
2018-03-28T08:24:44.157Z,9.79
2018-03-28T08:25:44.687Z,9.73
2018-03-28T08:26:44.113Z,9.69
2018-03-28T08:27:44.094Z,9.72
2018-03-28T08:28:44.067Z,9.69
2018-03-28T08:29:43.797Z,9.79
2018-03-28T08:30:44.077Z,9.8
2018-03-28T08:31:44.002Z,9.89
2018-03-28T08:32:43.977Z,9.91
2018-03-28T08:33:43.954Z,9.95
2018-03-28T08:34:43.688Z,9.99
2018-03-28T08:35:43.665Z,10.01
2018-03-28T08:36:43.890Z,9.97
2018-03-28T08:37:43.618Z,9.91
2018-03-28T08:38:43.840Z,9.89
2018-03-28T08:39:43.823Z,9.94
2018-03-28T08:40:43.552Z,9.86
2018-03-28T08:41:43.774Z,9.87
2018-03-28T08:42:43.752Z,9.87
2018-03-28T08:43:43.730Z,9.86
2018-03-28T08:44:43.709Z,9.77
2018-03-28T08:45:43.440Z,9.87
2018-03-28T08:46:43.431Z,9.76
2018-03-28T08:47:43.639Z,9.8
2018-03-28T08:48:43.371Z,9.69
2018-03-28T08:49:43.348Z,9.79
2018-03-28T08:50:43.573Z,9.8
2018-03-28T08:51:43.306Z,9.73
2018-03-28T08:52:43.525Z,9.68
2018-03-28T08:53:43.504Z,9.77
2018-03-28T08:54:43.482Z,9.76
2018-03-28T08:55:43.207Z,9.73
2018-03-28T08:56:43.444Z,9.62
2018-03-28T08:57:43.423Z,9.74
2018-03-28T08:58:43.180Z,9.77
2018-03-28T08:59:42.869Z,9.92
2018-03-28T09:00:43.094Z,9.86
2018-03-28T09:01:42.821Z,9.87
2018-03-28T09:02:43.048Z,9.94
2018-03-28T09:03:43.035Z,10.02
2018-03-28T09:04:43.257Z,10.1
2018-03-28T09:05:43.228Z,10.19
2018-03-28T09:06:43.213Z,10.16
2018-03-28T09:07:43.180Z,10.23
2018-03-28T09:08:42.916Z,10.3
2018-03-28T09:09:42.975Z,10.41
2018-03-28T09:10:43.115Z,10.46
2018-03-28T09:11:42.960Z,10.56
2018-03-28T09:12:43.073Z,10.72
2018-03-28T09:13:43.054Z,10.75
2018-03-28T09:14:43.037Z,10.75
2018-03-28T09:15:43.009Z,10.78
2018-03-28T09:16:42.738Z,10.76
2018-03-28T09:17:43.467Z,10.9
2018-03-28T09:18:42.956Z,10.89
2018-03-28T09:19:42.677Z,10.92
2018-03-28T09:20:42.907Z,10.75
2018-03-28T09:21:42.880Z,10.81
2018-03-28T09:22:42.861Z,10.97
2018-03-28T09:23:42.845Z,10.99
2018-03-28T09:24:42.569Z,11.17
2018-03-28T09:25:42.796Z,11.26
2018-03-28T09:26:42.531Z,11.37
2018-03-28T09:27:43.148Z,11.43
2018-03-28T09:28:42.743Z,11.45
2018-03-28T09:29:42.722Z,11.45
2018-03-28T09:30:42.788Z,11.4
2018-03-28T09:31:42.679Z,11.45
2018-03-28T09:32:42.656Z,11.43
2018-03-28T09:33:42.636Z,11.51
2018-03-28T09:34:42.620Z,11.51
2018-03-28T09:35:42.592Z,11.47
2018-03-28T09:36:42.572Z,11.45
2018-03-28T09:37:42.558Z,11.43
2018-03-28T09:38:42.297Z,11.47
2018-03-28T09:39:42.274Z,11.5
2018-03-28T09:40:42.495Z,11.47
2018-03-28T09:41:42.479Z,11.45
2018-03-28T09:42:42.204Z,11.43
2018-03-28T09:43:42.447Z,11.47
2018-03-28T09:44:41.918Z,11.52
2018-03-28T09:45:42.148Z,11.57
2018-03-28T09:46:42.127Z,11.55
2018-03-28T09:47:42.356Z,11.47
2018-03-28T09:48:42.342Z,11.45
2018-03-28T09:49:42.066Z,11.5
2018-03-28T09:50:42.057Z,11.4
2018-03-28T09:51:42.027Z,11.5
2018-03-28T09:52:42.004Z,11.57
2018-03-28T09:53:41.983Z,11.52
2018-03-28T09:54:42.214Z,11.55
2018-03-28T09:55:42.197Z,11.6
2018-03-28T09:56:42.072Z,11.63
2018-03-28T09:57:42.407Z,11.54
2018-03-28T09:58:42.136Z,11.57
2018-03-28T09:59:42.114Z,11.59
2018-03-28T10:00:41.847Z,11.57
2018-03-28T10:01:42.077Z,11.51
2018-03-28T10:02:41.811Z,11.52
2018-03-28T10:03:41.789Z,11.47
2018-03-28T10:04:42.016Z,11.41
2018-03-28T10:05:41.993Z,11.48
2018-03-28T10:06:41.985Z,11.48
2018-03-28T10:07:41.953Z,11.45
2018-03-28T10:08:41.931Z,11.47
2018-03-28T10:09:41.912Z,11.5
2018-03-28T10:10:41.884Z,11.4
2018-03-28T10:11:41.922Z,11.48
2018-03-28T10:12:41.847Z,11.47
2018-03-28T10:13:41.828Z,11.51
2018-03-28T10:14:41.824Z,11.54
2018-03-28T10:15:41.806Z,11.54
2018-03-28T10:16:41.779Z,11.45
2018-03-28T10:17:41.512Z,11.41
2018-03-28T10:18:41.493Z,11.45
2018-03-28T10:19:41.820Z,11.32
2018-03-28T10:20:41.691Z,11.14
2018-03-28T10:21:41.671Z,11.23
2018-03-28T10:22:41.401Z,11.15
2018-03-28T10:23:41.384Z,11.12
2018-03-28T10:24:41.615Z,11.12
2018-03-28T10:25:41.585Z,11.18
2018-03-28T10:26:41.363Z,11.15
2018-03-28T10:27:41.598Z,11.3
2018-03-28T10:28:41.524Z,11.33
2018-03-28T10:29:41.503Z,11.4
2018-03-28T10:30:41.566Z,11.3
2018-03-28T10:31:41.457Z,11.43
2018-03-28T10:32:41.194Z,11.41
2018-03-28T10:33:41.412Z,11.44
2018-03-28T10:34:41.398Z,11.47
2018-03-28T10:35:41.375Z,11.41
2018-03-28T10:36:41.357Z,11.41
2018-03-28T10:37:41.087Z,11.41
2018-03-28T10:38:41.324Z,11.29
2018-03-28T10:39:41.299Z,11.35
2018-03-28T10:40:41.272Z,11.29
2018-03-28T10:41:41.249Z,11.12
2018-03-28T10:42:40.993Z,11.17
2018-03-28T10:43:40.960Z,11.17
2018-03-28T10:44:40.934Z,11.15
2018-03-28T10:45:41.161Z,11.18
2018-03-28T10:46:41.138Z,11.12
2018-03-28T10:47:40.867Z,11.15
2018-03-28T10:48:40.891Z,11.12
2018-03-28T10:49:41.078Z,11.22
2018-03-28T10:50:41.068Z,11.15
2018-03-28T10:51:40.780Z,11.15
2018-03-28T10:52:41.010Z,11.15
2018-03-28T10:53:41.035Z,11.19
2018-03-28T10:54:40.966Z,11.18
2018-03-28T10:55:40.948Z,11.17
2018-03-28T10:56:40.924Z,11.08
2018-03-28T10:57:40.655Z,11.22
2018-03-28T10:58:40.882Z,11.26
2018-03-28T10:59:40.613Z,11.18
2018-03-28T11:00:40.841Z,11.27
2018-03-28T11:01:40.814Z,11.33
2018-03-28T11:02:40.797Z,11.32
2018-03-28T11:03:40.532Z,11.26
2018-03-28T11:04:40.505Z,11.23
2018-03-28T11:05:40.753Z,11.19
2018-03-28T11:06:40.714Z,11.15
2018-03-28T11:07:40.711Z,11.15
2018-03-28T11:08:40.677Z,11.14
2018-03-28T11:09:40.642Z,11.11
2018-03-28T11:10:40.372Z,11.07
2018-03-28T11:11:40.348Z,11.14
2018-03-28T11:12:40.578Z,11.07
2018-03-28T11:13:40.304Z,11.17
2018-03-28T11:14:40.282Z,11.22
2018-03-28T11:15:40.516Z,11.29
2018-03-28T11:16:40.492Z,11.4
2018-03-28T11:17:40.467Z,11.47
2018-03-28T11:18:40.446Z,11.47
2018-03-28T11:19:40.434Z,11.47
2018-03-28T11:20:40.413Z,11.5
2018-03-28T11:21:40.131Z,11.4
2018-03-28T11:22:40.128Z,11.4
2018-03-28T11:23:40.335Z,11.48
2018-03-28T11:24:40.065Z,11.4
2018-03-28T11:25:40.318Z,11.3
2018-03-28T11:26:40.272Z,11.29
2018-03-28T11:27:40.003Z,11.35
2018-03-28T11:28:40.232Z,11.35
2018-03-28T11:29:39.957Z,11.36
2018-03-28T11:30:39.934Z,11.32
2018-03-28T11:31:40.170Z,11.4
2018-03-28T11:32:40.280Z,11.3
2018-03-28T11:33:40.122Z,11.33
2018-03-28T11:34:40.096Z,11.27
2018-03-28T11:35:39.828Z,11.15
2018-03-28T11:36:40.057Z,11.11
2018-03-28T11:37:39.783Z,10.99
2018-03-28T11:38:40.130Z,10.81
2018-03-28T11:39:39.991Z,10.69
2018-03-28T11:40:39.966Z,10.75
2018-03-28T11:41:39.940Z,10.71
2018-03-28T11:42:39.926Z,10.63
2018-03-28T11:43:39.651Z,10.79
2018-03-28T11:44:39.884Z,10.79
2018-03-28T11:45:39.857Z,10.86
2018-03-28T11:46:39.332Z,10.81
2018-03-28T11:47:39.909Z,10.99
2018-03-28T11:48:39.898Z,10.93
2018-03-28T11:49:39.764Z,11
2018-03-28T11:50:39.744Z,11.02
2018-03-28T11:51:39.472Z,10.92
2018-03-28T11:52:39.699Z,10.81
2018-03-28T11:53:39.783Z,10.84
2018-03-28T11:54:39.406Z,10.74
2018-03-28T11:55:39.142Z,10.86
2018-03-28T11:56:39.623Z,10.78
2018-03-28T11:57:39.341Z,10.78
2018-03-28T11:58:40.295Z,10.84
2018-03-28T11:59:40.128Z,10.9
2018-03-28T12:00:39.523Z,10.96
2018-03-28T12:01:39.504Z,11.07
2018-03-28T12:02:39.232Z,11.08
2018-03-28T12:03:39.455Z,11.15
2018-03-28T12:04:39.529Z,11.14
2018-03-28T12:05:39.419Z,11.14
2018-03-28T12:06:39.398Z,11.15
2018-03-28T12:07:39.382Z,11.15
2018-03-28T12:08:38.853Z,11.12
2018-03-28T12:09:39.335Z,11.27
2018-03-28T12:10:39.056Z,11.27
2018-03-28T12:11:39.033Z,11.33
2018-03-28T12:12:39.016Z,11.29
2018-03-28T12:13:39.243Z,11.35
2018-03-28T12:14:39.219Z,11.33
2018-03-28T12:15:39.202Z,11.37
2018-03-28T12:16:39.179Z,11.45
2018-03-28T12:17:39.164Z,11.41
2018-03-28T12:18:39.136Z,11.45
2018-03-28T12:19:39.114Z,11.45
2018-03-28T12:20:39.087Z,11.57
2018-03-28T12:21:39.071Z,11.62
2018-03-28T12:22:39.050Z,11.51
2018-03-28T12:23:38.773Z,11.63
2018-03-28T12:24:39.002Z,11.75
2018-03-28T12:25:38.985Z,11.75
2018-03-28T12:26:38.964Z,11.73
2018-03-28T12:27:38.939Z,11.72
2018-03-28T12:28:38.672Z,11.69
2018-03-28T12:29:38.897Z,11.68
2018-03-28T12:30:38.883Z,11.65
2018-03-28T12:31:38.858Z,11.63
2018-03-28T12:32:39.016Z,11.69
2018-03-28T12:33:38.823Z,11.73
2018-03-28T12:34:38.549Z,11.77
2018-03-28T12:35:38.782Z,11.72
2018-03-28T12:36:38.754Z,11.81
2018-03-28T12:37:38.484Z,11.73
2018-03-28T12:38:38.711Z,11.81
2018-03-28T12:39:38.448Z,11.83
2018-03-28T12:40:38.680Z,11.86
2018-03-28T12:41:38.404Z,11.72
2018-03-28T12:42:38.821Z,11.78
2018-03-28T12:43:38.617Z,11.68
2018-03-28T12:44:38.635Z,11.59
2018-03-28T12:45:38.584Z,11.48
2018-03-28T12:46:38.294Z,11.43
2018-03-28T12:47:38.277Z,11.36
2018-03-28T12:48:38.278Z,11.32
2018-03-28T12:49:38.351Z,11.37
2018-03-28T12:50:38.496Z,11.33
2018-03-28T12:51:38.437Z,11.32
2018-03-28T12:52:38.447Z,11.37
2018-03-28T12:53:38.398Z,11.29
2018-03-28T12:54:38.424Z,11.33
2018-03-28T12:55:38.731Z,11.27
2018-03-28T12:56:38.430Z,11.26
2018-03-28T12:57:38.257Z,11.3
2018-03-28T12:58:38.043Z,11.3
2018-03-28T12:59:38.268Z,11.22
2018-03-28T13:00:38.253Z,11.15
2018-03-28T13:01:38.218Z,11.1
2018-03-28T13:02:38.234Z,11.02
2018-03-28T13:03:37.935Z,11.04
2018-03-28T13:04:38.159Z,10.96
2018-03-28T13:05:38.141Z,10.82
2018-03-28T13:06:38.119Z,10.76
2018-03-28T13:07:37.590Z,10.78
2018-03-28T13:08:37.815Z,10.81
2018-03-28T13:09:38.046Z,10.71
2018-03-28T13:10:38.020Z,10.64
2018-03-28T13:11:38.282Z,10.69
2018-03-28T13:12:37.978Z,10.54
2018-03-28T13:13:37.705Z,10.48
2018-03-28T13:14:37.933Z,10.4